createdAt,value
2018-01-08T00:00:52.874Z,52.45
2018-01-08T00:01:52.825Z,51.41
2018-01-08T00:02:52.780Z,51.03
2018-01-08T00:03:52.735Z,50.65
2018-01-08T00:04:52.696Z,49.80
2018-01-08T00:05:52.642Z,49.62
2018-01-08T00:06:52.601Z,49.43
2018-01-08T00:07:52.559Z,49.24
2018-01-08T00:08:52.511Z,49.99
2018-01-08T00:09:52.497Z,50.18
2018-01-08T00:10:52.425Z,50.37
2018-01-08T00:11:52.379Z,49.71
2018-01-08T00:12:52.361Z,49.71
2018-01-08T00:13:52.292Z,49.24
2018-01-08T00:14:52.241Z,49.33
2018-01-08T00:15:52.197Z,49.33
2018-01-08T00:16:52.160Z,50.18
2018-01-08T00:17:52.108Z,49.90
2018-01-08T00:18:52.075Z,49.52
2018-01-08T00:19:52.020Z,49.52
2018-01-08T00:20:51.985Z,48.95
2018-01-08T00:21:51.943Z,48.95
2018-01-08T00:22:51.888Z,48.29
2018-01-08T00:23:51.844Z,47.82
2018-01-08T00:24:51.802Z,47.82
2018-01-08T00:25:51.760Z,47.72
2018-01-08T00:26:51.711Z,47.63
2018-01-08T00:27:51.673Z,49.14
2018-01-08T00:28:51.631Z,49.52
2018-01-08T00:29:51.585Z,49.24
2018-01-08T00:30:51.552Z,49.24
2018-01-08T00:31:51.489Z,48.57
2018-01-08T00:32:51.446Z,48.29
2018-01-08T00:33:51.402Z,48.76
2018-01-08T00:34:51.358Z,48.67
2018-01-08T00:35:51.474Z,48.86
2018-01-08T00:36:51.276Z,48.86
2018-01-08T00:37:51.225Z,48.20
2018-01-08T00:38:51.179Z,47.91
2018-01-08T00:39:51.135Z,47.82
2018-01-08T00:40:51.090Z,47.91
2018-01-08T00:41:51.049Z,48.10
2018-01-08T00:42:51.053Z,48.86
2018-01-08T00:43:50.955Z,47.72
2018-01-08T00:44:50.923Z,46.97
2018-01-08T00:45:50.977Z,47.06
2018-01-08T00:46:50.857Z,46.21
2018-01-08T00:47:50.858Z,44.79
2018-01-08T00:48:50.734Z,46.50
2018-01-08T00:49:50.685Z,46.50
2018-01-08T00:50:50.658Z,47.06
2018-01-08T00:51:50.597Z,46.50
2018-01-08T00:52:50.552Z,46.88
2018-01-08T00:53:50.509Z,48.10
2018-01-08T00:54:50.466Z,48.39
2018-01-08T00:55:50.417Z,47.82
2018-01-08T00:56:50.372Z,47.16
2018-01-08T00:57:50.346Z,47.25
2018-01-08T00:58:50.334Z,47.72
2018-01-08T00:59:50.248Z,48.01
2018-01-08T01:00:50.200Z,48.39
2018-01-08T01:01:50.183Z,49.33
2018-01-08T01:02:50.107Z,48.39
2018-01-08T01:03:50.062Z,48.01
2018-01-08T01:04:50.022Z,47.25
2018-01-08T01:05:49.972Z,47.25
2018-01-08T01:06:49.932Z,46.97
2018-01-08T01:07:49.884Z,46.50
2018-01-08T01:08:49.842Z,46.31
2018-01-08T01:09:49.805Z,46.12
2018-01-08T01:10:49.752Z,46.59
2018-01-08T01:11:49.711Z,46.12
2018-01-08T01:12:49.669Z,45.36
2018-01-08T01:13:49.620Z,45.55
2018-01-08T01:14:49.587Z,45.93
2018-01-08T01:15:49.539Z,45.93
2018-01-08T01:16:49.485Z,44.98
2018-01-08T01:17:49.445Z,44.79
2018-01-08T01:18:49.397Z,44.79
2018-01-08T01:19:49.399Z,44.98
2018-01-08T01:20:49.340Z,44.51
2018-01-08T01:21:49.281Z,44.04
2018-01-08T01:22:49.223Z,43.09
2018-01-08T01:23:49.189Z,43.09
2018-01-08T01:24:49.139Z,43.00
2018-01-08T01:25:49.085Z,42.71
2018-01-08T01:26:49.060Z,42.71
2018-01-08T01:27:49.003Z,41.77
2018-01-08T01:28:48.973Z,41.77
2018-01-08T01:29:48.910Z,42.05
2018-01-08T01:30:48.878Z,43.09
2018-01-08T01:31:48.816Z,42.52
2018-01-08T01:32:48.774Z,43.66
2018-01-08T01:33:48.740Z,44.04
2018-01-08T01:34:48.682Z,43.57
2018-01-08T01:35:48.641Z,43.28
2018-01-08T01:36:48.590Z,43.95
2018-01-08T01:37:48.553Z,43.28
2018-01-08T01:38:48.503Z,44.04
2018-01-08T01:39:48.474Z,44.23
2018-01-08T01:40:48.416Z,45.27
2018-01-08T01:41:48.371Z,45.27
2018-01-08T01:42:48.328Z,45.08
2018-01-08T01:43:48.280Z,43.85
2018-01-08T01:44:48.240Z,43.76
2018-01-08T01:45:48.202Z,43.38
2018-01-08T01:46:48.145Z,43.28
2018-01-08T01:47:48.106Z,43.19
2018-01-08T01:48:48.056Z,43.00
2018-01-08T01:49:48.033Z,43.19
2018-01-08T01:50:47.966Z,43.09
2018-01-08T01:51:47.922Z,43.00
2018-01-08T01:52:47.877Z,42.62
2018-01-08T01:53:47.832Z,42.62
2018-01-08T01:54:47.787Z,41.58
2018-01-08T01:55:47.752Z,41.86
2018-01-08T01:56:47.701Z,43.09
2018-01-08T01:57:47.666Z,42.90
2018-01-08T01:58:47.609Z,43.85
2018-01-08T01:59:47.581Z,43.85
2018-01-08T02:00:47.521Z,43.85
2018-01-08T02:01:47.512Z,43.76
2018-01-08T02:02:47.432Z,43.00
2018-01-08T02:03:47.407Z,43.66
2018-01-08T02:04:47.347Z,43.76
2018-01-08T02:05:47.299Z,42.90
2018-01-08T02:06:47.274Z,42.34
2018-01-08T02:07:47.222Z,41.86
2018-01-08T02:08:47.179Z,42.52
2018-01-08T02:09:47.131Z,42.81
2018-01-08T02:10:47.200Z,43.09
2018-01-08T02:11:47.036Z,43.09
2018-01-08T02:12:47.004Z,42.81
2018-01-08T02:13:46.953Z,43.00
2018-01-08T02:14:46.911Z,43.66
2018-01-08T02:15:46.864Z,45.36
2018-01-08T02:16:46.823Z,45.83
2018-01-08T02:17:46.761Z,44.60
2018-01-08T02:18:46.755Z,44.89
2018-01-08T02:19:46.675Z,44.79
2018-01-08T02:20:46.630Z,45.45
2018-01-08T02:21:46.582Z,45.45
2018-01-08T02:22:46.544Z,45.64
2018-01-08T02:23:46.495Z,45.83
2018-01-08T02:24:46.449Z,45.74
2018-01-08T02:25:46.405Z,45.27
2018-01-08T02:26:46.366Z,45.36
2018-01-08T02:27:46.313Z,45.36
2018-01-08T02:28:46.272Z,47.06
2018-01-08T02:29:46.230Z,46.69
2018-01-08T02:30:46.181Z,46.50
2018-01-08T02:31:46.146Z,46.69
2018-01-08T02:32:46.092Z,46.02
2018-01-08T02:33:46.047Z,45.64
2018-01-08T02:34:46.003Z,45.27
2018-01-08T02:35:45.965Z,45.93
2018-01-08T02:36:45.913Z,45.93
2018-01-08T02:37:45.871Z,45.64
2018-01-08T02:38:45.830Z,45.08
2018-01-08T02:39:45.779Z,45.36
2018-01-08T02:40:45.737Z,46.50
2018-01-08T02:41:45.694Z,46.69
2018-01-08T02:42:45.657Z,47.63
2018-01-08T02:43:45.627Z,47.72
2018-01-08T02:44:45.559Z,47.34
2018-01-08T02:45:45.510Z,47.06
2018-01-08T02:46:45.471Z,45.74
2018-01-08T02:47:45.434Z,46.31
2018-01-08T02:48:45.381Z,46.97
2018-01-08T02:49:45.346Z,46.50
2018-01-08T02:50:45.286Z,44.98
2018-01-08T02:51:45.258Z,44.98
2018-01-08T02:52:45.196Z,44.70
2018-01-08T02:53:45.180Z,45.83
2018-01-08T02:54:45.111Z,46.12
2018-01-08T02:55:45.104Z,45.45
2018-01-08T02:56:45.020Z,45.36
2018-01-08T02:57:44.975Z,44.98
2018-01-08T02:58:44.932Z,44.13
2018-01-08T02:59:44.908Z,43.19
2018-01-08T03:00:44.840Z,44.60
2018-01-08T03:01:44.802Z,45.08
2018-01-08T03:02:44.768Z,44.32
2018-01-08T03:03:44.705Z,43.92
2018-01-08T03:04:44.729Z,44.79
2018-01-08T03:05:44.618Z,45.08
2018-01-08T03:06:44.578Z,45.17
2018-01-08T03:07:44.526Z,45.45
2018-01-08T03:08:44.480Z,44.89
2018-01-08T03:09:44.439Z,44.98
2018-01-08T03:10:44.395Z,44.60
2018-01-08T03:11:44.348Z,44.98
2018-01-08T03:12:44.307Z,46.12
2018-01-08T03:13:44.260Z,45.08
2018-01-08T03:14:44.212Z,45.08
2018-01-08T03:15:44.185Z,45.55
2018-01-08T03:16:44.126Z,45.83
2018-01-08T03:17:44.085Z,46.12
2018-01-08T03:18:44.038Z,45.93
2018-01-08T03:19:43.989Z,45.27
2018-01-08T03:20:43.944Z,46.02
2018-01-08T03:21:43.900Z,45.55
2018-01-08T03:22:43.852Z,44.89
2018-01-08T03:23:43.810Z,44.96
2018-01-08T03:24:43.771Z,44.11
2018-01-08T03:25:43.720Z,44.96
2018-01-08T03:26:43.679Z,45.27
2018-01-08T03:27:43.631Z,46.02
2018-01-08T03:28:43.587Z,45.74
2018-01-08T03:29:43.543Z,46.69
2018-01-08T03:30:43.499Z,46.47
2018-01-08T03:31:43.471Z,46.56
2018-01-08T03:32:43.440Z,46.97
2018-01-08T03:33:43.365Z,47.72
2018-01-08T03:34:43.319Z,46.85
2018-01-08T03:35:43.272Z,46.00
2018-01-08T03:36:43.233Z,46.94
2018-01-08T03:37:43.189Z,48.36
2018-01-08T03:38:43.141Z,47.91
2018-01-08T03:39:43.092Z,46.56
2018-01-08T03:40:43.050Z,48.10
2018-01-08T03:41:43.005Z,47.89
2018-01-08T03:42:42.961Z,48.46
2018-01-08T03:43:42.917Z,48.48
2018-01-08T03:44:42.876Z,48.39
2018-01-08T03:45:42.829Z,48.67
2018-01-08T03:46:42.787Z,48.18
2018-01-08T03:47:42.736Z,48.01
2018-01-08T03:48:42.699Z,47.13
2018-01-08T03:49:42.647Z,46.37
2018-01-08T03:50:42.606Z,46.00
2018-01-08T03:51:42.563Z,45.34
2018-01-08T03:52:42.515Z,46.97
2018-01-08T03:53:42.466Z,47.13
2018-01-08T03:54:42.425Z,47.42
2018-01-08T03:55:42.382Z,47.89
2018-01-08T03:56:42.335Z,47.99
2018-01-08T03:57:42.290Z,49.49
2018-01-08T03:58:42.244Z,50.18
2018-01-08T03:59:42.214Z,49.90
2018-01-08T04:00:42.157Z,51.22
2018-01-08T04:01:42.108Z,51.22
2018-01-08T04:02:42.066Z,50.82
2018-01-08T04:03:42.031Z,51.03
2018-01-08T04:04:41.977Z,51.29
2018-01-08T04:05:41.931Z,51.76
2018-01-08T04:06:41.887Z,54.32
2018-01-08T04:07:41.844Z,54.13
2018-01-08T04:08:41.797Z,54.22
2018-01-08T04:09:41.755Z,53.77
2018-01-08T04:10:41.708Z,54.25
2018-01-08T04:11:41.671Z,53.65
2018-01-08T04:12:41.620Z,53.68
2018-01-08T04:13:41.575Z,56.01
2018-01-08T04:14:41.530Z,58.00
2018-01-08T04:15:41.486Z,57.05
2018-01-08T04:16:41.440Z,56.61
2018-01-08T04:17:41.395Z,56.30
2018-01-08T04:18:41.348Z,55.63
2018-01-08T04:19:41.304Z,54.13
2018-01-08T04:20:41.272Z,54.32
2018-01-08T04:21:41.217Z,54.41
2018-01-08T04:22:41.172Z,55.16
2018-01-08T04:23:41.128Z,55.26
2018-01-08T04:24:41.088Z,56.77
2018-01-08T04:25:41.036Z,58.09
2018-01-08T04:26:40.990Z,59.35
2018-01-08T04:27:40.953Z,59.13
2018-01-08T04:28:40.905Z,59.32
2018-01-08T04:29:40.866Z,59.70
2018-01-08T04:30:40.812Z,61.52
2018-01-08T04:31:40.768Z,60.96
2018-01-08T04:32:40.725Z,60.55
2018-01-08T04:33:40.683Z,60.27
2018-01-08T04:34:40.632Z,59.70
2018-01-08T04:35:40.590Z,62.81
2018-01-08T04:36:40.555Z,63.70
2018-01-08T04:37:40.522Z,61.87
2018-01-08T04:38:40.462Z,60.83
2018-01-08T04:39:40.412Z,62.53
2018-01-08T04:40:40.370Z,63.19
2018-01-08T04:41:40.318Z,64.36
2018-01-08T04:42:40.272Z,66.41
2018-01-08T04:43:40.237Z,65.21
2018-01-08T04:44:40.184Z,63.76
2018-01-08T04:45:40.137Z,65.11
2018-01-08T04:46:40.101Z,66.53
2018-01-08T04:47:40.049Z,65.65
2018-01-08T04:48:40.006Z,65.08
2018-01-08T04:49:39.960Z,64.32
2018-01-08T04:50:39.914Z,62.72
2018-01-08T04:51:39.878Z,61.40
2018-01-08T04:52:39.828Z,61.21
2018-01-08T04:53:39.779Z,60.83
2018-01-08T04:54:39.751Z,61.49
2018-01-08T04:55:39.688Z,60.93
2018-01-08T04:56:39.648Z,60.64
2018-01-08T04:57:39.600Z,60.74
2018-01-08T04:58:39.555Z,59.51
2018-01-08T04:59:39.520Z,59.13
2018-01-08T05:00:39.465Z,58.65
2018-01-08T05:01:39.421Z,57.05
2018-01-08T05:02:39.384Z,56.96
2018-01-08T05:03:39.331Z,56.67
2018-01-08T05:04:39.287Z,56.30
2018-01-08T05:05:39.240Z,55.73
2018-01-08T05:06:39.201Z,56.11
2018-01-08T05:07:39.156Z,55.73
2018-01-08T05:08:39.107Z,54.32
2018-01-08T05:09:39.064Z,54.13
2018-01-08T05:10:39.019Z,53.56
2018-01-08T05:11:38.989Z,52.23
2018-01-08T05:12:38.929Z,51.29
2018-01-08T05:13:38.883Z,52.14
2018-01-08T05:14:38.841Z,52.04
2018-01-08T05:15:38.794Z,53.18
2018-01-08T05:16:38.748Z,52.89
2018-01-08T05:17:38.701Z,53.65
2018-01-08T05:18:38.655Z,52.70
2018-01-08T05:19:38.619Z,52.23
2018-01-08T05:20:38.566Z,52.04
2018-01-08T05:21:38.524Z,53.65
2018-01-08T05:22:38.478Z,54.60
2018-01-08T05:23:38.430Z,53.08
2018-01-08T05:24:38.394Z,52.99
2018-01-08T05:25:38.349Z,53.56
2018-01-08T05:26:38.303Z,54.32
2018-01-08T05:27:38.250Z,53.75
2018-01-08T05:28:38.211Z,53.65
2018-01-08T05:29:38.163Z,52.70
2018-01-08T05:30:38.121Z,54.41
2018-01-08T05:31:38.080Z,53.94
2018-01-08T05:32:38.026Z,52.99
2018-01-08T05:33:37.982Z,53.65
2018-01-08T05:34:37.940Z,53.84
2018-01-08T05:35:37.892Z,53.65
2018-01-08T05:36:37.854Z,54.13
2018-01-08T05:37:37.811Z,54.79
2018-01-08T05:38:37.760Z,55.44
2018-01-08T05:39:37.715Z,55.63
2018-01-08T05:40:37.683Z,57.53
2018-01-08T05:41:37.624Z,57.05
2018-01-08T05:42:37.583Z,58.84
2018-01-08T05:43:37.536Z,57.81
2018-01-08T05:44:37.491Z,59.13
2018-01-08T05:45:37.444Z,58.75
2018-01-08T05:46:37.398Z,58.09
2018-01-08T05:47:37.355Z,59.79
2018-01-08T05:48:37.317Z,61.58
2018-01-08T05:49:37.268Z,62.15
2018-01-08T05:50:37.217Z,63.57
2018-01-08T05:51:37.175Z,62.81
2018-01-08T05:52:37.133Z,63.76
2018-01-08T05:53:37.081Z,64.61
2018-01-08T05:54:37.037Z,64.98
2018-01-08T05:55:36.994Z,66.59
2018-01-08T05:56:36.948Z,66.31
2018-01-08T05:57:36.901Z,66.50
2018-01-08T05:58:36.876Z,70.00
2018-01-08T05:59:36.812Z,68.10
2018-01-08T06:00:36.768Z,67.91
2018-01-08T06:01:36.722Z,69.71
2018-01-08T06:02:36.679Z,70.37
2018-01-08T06:03:36.633Z,70.47
2018-01-08T06:04:36.586Z,71.79
2018-01-08T06:05:36.542Z,70.65
2018-01-08T06:06:36.496Z,69.33
2018-01-08T06:07:36.453Z,69.05
2018-01-08T06:08:36.408Z,71.50
2018-01-08T06:09:36.360Z,69.90
2018-01-08T06:10:36.412Z,70.56
2018-01-08T06:11:36.272Z,68.95
2018-01-08T06:12:36.226Z,70.18
2018-01-08T06:13:36.183Z,70.56
2018-01-08T06:14:36.136Z,70.56
2018-01-08T06:15:36.094Z,70.56
2018-01-08T06:16:36.046Z,70.56
2018-01-08T06:17:36.010Z,71.50
2018-01-08T06:18:35.956Z,70.94
2018-01-08T06:19:35.913Z,70.94
2018-01-08T06:20:35.875Z,71.60
2018-01-08T06:21:35.819Z,72.26
2018-01-08T06:22:35.778Z,72.07
2018-01-08T06:23:35.733Z,71.79
2018-01-08T06:24:35.687Z,72.55
2018-01-08T06:25:35.642Z,74.24
2018-01-08T06:26:35.598Z,72.55
2018-01-08T06:27:35.559Z,72.17
2018-01-08T06:28:35.509Z,71.31
2018-01-08T06:29:35.461Z,71.03
2018-01-08T06:30:35.422Z,70.00
2018-01-08T06:31:35.388Z,70.37
2018-01-08T06:32:35.335Z,70.00
2018-01-08T06:33:35.295Z,71.88
2018-01-08T06:34:35.234Z,71.31
2018-01-08T06:35:35.192Z,70.56
2018-01-08T06:36:35.148Z,70.18
2018-01-08T06:37:35.101Z,72.83
2018-01-08T06:38:35.062Z,70.75
2018-01-08T06:39:35.013Z,72.26
2018-01-08T06:40:35.005Z,72.45
2018-01-08T06:41:34.918Z,71.98
2018-01-08T06:42:34.877Z,71.69
2018-01-08T06:43:34.843Z,69.43
2018-01-08T06:44:34.794Z,68.76
2018-01-08T06:45:34.742Z,68.39
2018-01-08T06:46:34.695Z,68.76
2018-01-08T06:47:34.652Z,68.86
2018-01-08T06:48:34.603Z,68.48
2018-01-08T06:49:34.559Z,69.24
2018-01-08T06:50:34.516Z,69.24
2018-01-08T06:51:34.468Z,69.33
2018-01-08T06:52:34.426Z,68.48
2018-01-08T06:53:34.380Z,68.67
2018-01-08T06:54:34.335Z,67.63
2018-01-08T06:55:34.290Z,69.24
2018-01-08T06:56:34.244Z,69.52
2018-01-08T06:57:34.198Z,71.41
2018-01-08T06:58:34.153Z,71.79
2018-01-08T06:59:34.109Z,70.75
2018-01-08T07:00:34.763Z,70.56
2018-01-08T07:01:34.017Z,70.47
2018-01-08T07:02:33.975Z,70.84
2018-01-08T07:03:33.941Z,71.31
2018-01-08T07:04:33.884Z,73.02
2018-01-08T07:05:33.837Z,72.07
2018-01-08T07:06:33.791Z,72.26
2018-01-08T07:07:33.750Z,73.02
2018-01-08T07:08:33.701Z,73.11
2018-01-08T07:09:33.658Z,74.43
2018-01-08T07:10:33.613Z,74.05
2018-01-08T07:11:33.564Z,74.05
2018-01-08T07:12:33.523Z,73.30
2018-01-08T07:13:33.478Z,74.90
2018-01-08T07:14:33.434Z,78.87
2018-01-08T07:15:33.395Z,75.57
2018-01-08T07:16:33.342Z,74.81
2018-01-08T07:17:33.314Z,74.62
2018-01-08T07:18:33.253Z,75.57
2018-01-08T07:19:33.207Z,74.62
2018-01-08T07:20:33.161Z,76.51
2018-01-08T07:21:33.114Z,77.36
2018-01-08T07:22:33.072Z,77.93
2018-01-08T07:23:33.028Z,77.45
2018-01-08T07:24:32.990Z,77.17
2018-01-08T07:25:32.936Z,77.36
2018-01-08T07:26:32.897Z,77.45
2018-01-08T07:27:32.845Z,77.45
2018-01-08T07:28:32.803Z,78.50
2018-01-08T07:29:32.756Z,78.02
2018-01-08T07:30:32.709Z,78.68
2018-01-08T07:31:32.668Z,79.63
2018-01-08T07:32:32.621Z,79.06
2018-01-08T07:33:32.576Z,79.63
2018-01-08T07:34:32.531Z,79.06
2018-01-08T07:35:32.485Z,79.16
2018-01-08T07:36:32.442Z,79.53
2018-01-08T07:37:32.396Z,78.68
2018-01-08T07:38:32.353Z,79.25
2018-01-08T07:39:32.308Z,78.68
2018-01-08T07:40:32.268Z,78.40
2018-01-08T07:41:32.214Z,79.06
2018-01-08T07:42:32.194Z,79.25
2018-01-08T07:43:32.692Z,79.63
2018-01-08T07:44:32.080Z,81.33
2018-01-08T07:45:32.036Z,81.04
2018-01-08T07:46:31.988Z,82.09
2018-01-08T07:47:31.944Z,81.99
2018-01-08T07:48:31.899Z,80.48
2018-01-08T07:49:31.858Z,79.53
2018-01-08T07:50:31.920Z,79.16
2018-01-08T07:51:31.809Z,79.72
2018-01-08T07:52:31.720Z,80.10
2018-01-08T07:53:31.678Z,80.29
2018-01-08T07:54:31.637Z,79.53
2018-01-08T07:55:31.694Z,78.59
2018-01-08T07:56:31.553Z,79.63
2018-01-08T07:57:31.511Z,79.25
2018-01-08T07:58:31.453Z,79.72
2018-01-08T07:59:31.406Z,78.59
2018-01-08T08:00:31.363Z,79.63
2018-01-08T08:01:31.322Z,80.38
2018-01-08T08:02:31.277Z,81.23
2018-01-08T08:03:31.229Z,87.66
2018-01-08T08:04:31.182Z,83.31
2018-01-08T08:05:31.138Z,85.11
2018-01-08T08:06:31.096Z,82.18
2018-01-08T08:07:31.050Z,83.03
2018-01-08T08:08:31.004Z,83.12
2018-01-08T08:09:30.955Z,82.93
2018-01-08T08:10:30.912Z,85.01
2018-01-08T08:11:30.865Z,86.90
2018-01-08T08:12:30.820Z,85.77
2018-01-08T08:13:30.800Z,86.43
2018-01-08T08:14:30.732Z,86.90
2018-01-08T08:15:30.689Z,88.70
2018-01-08T08:16:30.647Z,88.89
2018-01-08T08:17:30.595Z,88.89
2018-01-08T08:18:30.558Z,89.07
2018-01-08T08:19:30.507Z,89.54
2018-01-08T08:20:30.468Z,87.85
2018-01-08T08:21:30.415Z,89.07
2018-01-08T08:22:30.379Z,93.70
2018-01-08T08:23:30.329Z,91.53
2018-01-08T08:24:30.286Z,93.13
2018-01-08T08:25:30.237Z,99.99
2018-01-08T08:26:30.198Z,99.99
2018-01-08T08:27:30.150Z,99.99
2018-01-08T08:28:30.117Z,99.99
2018-01-08T08:29:30.064Z,99.99
2018-01-08T08:30:30.027Z,99.99
2018-01-08T08:31:29.969Z,99.99
2018-01-08T08:32:29.928Z,99.99
2018-01-08T08:33:29.882Z,99.99
2018-01-08T08:34:29.836Z,99.99
2018-01-08T08:35:29.808Z,99.99
2018-01-08T08:36:29.748Z,99.99
2018-01-08T08:37:29.699Z,99.99
2018-01-08T08:38:29.657Z,99.99
2018-01-08T08:39:29.609Z,99.99
2018-01-08T08:40:29.610Z,99.99
2018-01-08T08:41:29.520Z,99.99
2018-01-08T08:42:29.481Z,99.99
2018-01-08T08:43:29.433Z,99.99
2018-01-08T08:44:29.392Z,99.99
2018-01-08T08:45:29.343Z,99.99
2018-01-08T08:46:29.307Z,99.99
2018-01-08T08:47:29.252Z,99.99
2018-01-08T08:48:29.239Z,99.99
2018-01-08T08:49:29.165Z,99.99
2018-01-08T08:50:29.122Z,99.99
2018-01-08T08:51:29.075Z,99.99
2018-01-08T08:52:29.036Z,99.99
2018-01-08T08:53:28.986Z,99.99
2018-01-08T08:54:28.942Z,99.99
2018-01-08T08:55:28.899Z,99.99
2018-01-08T08:56:28.860Z,99.99
2018-01-08T08:57:28.808Z,99.99
2018-01-08T08:58:28.770Z,99.99
2018-01-08T08:59:28.751Z,99.99
2018-01-08T09:00:28.712Z,99.99
2018-01-08T09:01:28.632Z,99.99
2018-01-08T09:02:28.587Z,99.99
2018-01-08T09:03:28.540Z,99.99
2018-01-08T09:04:28.500Z,99.99
2018-01-08T09:05:28.452Z,99.99
2018-01-08T09:06:28.406Z,99.99
2018-01-08T09:07:28.363Z,99.99
2018-01-08T09:08:28.319Z,99.99
2018-01-08T09:09:28.282Z,99.99
2018-01-08T09:10:28.236Z,99.99
2018-01-08T09:11:28.188Z,99.99
2018-01-08T09:12:28.158Z,99.99
2018-01-08T09:13:28.099Z,99.99
2018-01-08T09:14:28.055Z,99.99
2018-01-08T09:15:28.008Z,99.99
2018-01-08T09:16:27.964Z,99.99
2018-01-08T09:17:27.919Z,99.99
2018-01-08T09:18:27.876Z,99.99
2018-01-08T09:19:27.840Z,99.99
2018-01-08T09:20:27.787Z,99.99
2018-01-08T09:21:27.742Z,99.99
2018-01-08T09:22:27.698Z,99.99
2018-01-08T09:23:27.654Z,99.99
2018-01-08T09:24:27.610Z,99.99
2018-01-08T09:25:27.566Z,99.99
2018-01-08T09:26:27.521Z,99.99
2018-01-08T09:27:27.479Z,99.99
2018-01-08T09:28:27.432Z,99.99
2018-01-08T09:29:27.389Z,99.99
2018-01-08T09:30:27.345Z,99.99
2018-01-08T09:31:27.305Z,99.99
2018-01-08T09:32:27.262Z,99.99
2018-01-08T09:33:27.214Z,99.99
2018-01-08T09:34:27.168Z,99.99
2018-01-08T09:35:27.193Z,99.99
2018-01-08T09:36:27.099Z,99.99
2018-01-08T09:37:27.100Z,99.99
2018-01-08T09:38:27.160Z,99.99
2018-01-08T09:39:26.951Z,99.19
2018-01-08T09:40:26.940Z,98.81
2018-01-08T09:41:26.890Z,99.95
2018-01-08T09:42:26.835Z,97.39
2018-01-08T09:43:26.784Z,95.59
2018-01-08T09:44:26.730Z,94.65
2018-01-08T09:45:26.699Z,92.00
2018-01-08T09:46:26.644Z,90.49
2018-01-08T09:47:26.604Z,89.07
2018-01-08T09:48:26.561Z,89.12
2018-01-08T09:49:26.510Z,88.60
2018-01-08T09:50:26.473Z,87.27
2018-01-08T09:51:26.434Z,86.14
2018-01-08T09:52:26.386Z,85.66
2018-01-08T09:53:26.334Z,83.72
2018-01-08T09:54:26.304Z,83.44
2018-01-08T09:55:26.249Z,80.79
2018-01-08T09:56:26.211Z,79.18
2018-01-08T09:57:26.173Z,78.42
2018-01-08T09:58:26.113Z,77.95
2018-01-08T09:59:26.071Z,78.14
2018-01-08T10:00:26.027Z,77.58
2018-01-08T10:01:25.989Z,78.14
2018-01-08T10:02:25.944Z,77.48
2018-01-08T10:03:25.905Z,76.72
2018-01-08T10:04:25.852Z,76.06
2018-01-08T10:05:25.814Z,76.15
2018-01-08T10:06:25.761Z,76.06
2018-01-08T10:07:25.722Z,75.40
2018-01-08T10:08:25.678Z,74.74
2018-01-08T10:09:25.636Z,73.13
2018-01-08T10:10:25.592Z,73.22
2018-01-08T10:11:25.557Z,72.47
2018-01-08T10:12:25.512Z,72.09
2018-01-08T10:13:25.480Z,70.01
2018-01-08T10:14:25.422Z,69.91
2018-01-08T10:15:25.372Z,68.21
2018-01-08T10:16:25.331Z,68.21
2018-01-08T10:17:25.288Z,67.74
2018-01-08T10:18:25.243Z,66.13
2018-01-08T10:19:25.202Z,65.47
2018-01-08T10:20:25.157Z,65.66
2018-01-08T10:21:25.111Z,65.56
2018-01-08T10:22:25.067Z,63.39
2018-01-08T10:23:25.042Z,61.87
2018-01-08T10:24:24.984Z,60.93
2018-01-08T10:25:24.946Z,60.36
2018-01-08T10:26:24.892Z,60.17
2018-01-08T10:27:24.859Z,59.41
2018-01-08T10:28:24.810Z,58.87
2018-01-08T10:29:24.773Z,59.06
2018-01-08T10:30:24.724Z,59.63
2018-01-08T10:31:24.682Z,59.98
2018-01-08T10:32:24.640Z,59.60
2018-01-08T10:33:24.590Z,59.41
2018-01-08T10:34:24.562Z,58.94
2018-01-08T10:35:24.508Z,59.16
2018-01-08T10:36:24.462Z,59.25
2018-01-08T10:37:24.418Z,57.17
2018-01-08T10:38:24.382Z,56.88
2018-01-08T10:39:24.331Z,56.70
2018-01-08T10:40:24.322Z,56.60
2018-01-08T10:41:24.242Z,55.94
2018-01-08T10:42:24.198Z,56.60
2018-01-08T10:43:24.161Z,57.35
2018-01-08T10:44:24.160Z,58.11
2018-01-08T10:45:24.071Z,58.02
2018-01-08T10:46:24.132Z,58.59
2018-01-08T10:47:23.988Z,58.11
2018-01-08T10:48:23.947Z,58.40
2018-01-08T10:49:23.892Z,58.30
2018-01-08T10:50:23.850Z,57.83
2018-01-08T10:51:23.819Z,57.54
2018-01-08T10:52:23.766Z,57.73
2018-01-08T10:53:23.722Z,57.73
2018-01-08T10:54:23.676Z,58.02
2018-01-08T10:55:23.638Z,56.70
2018-01-08T10:56:23.596Z,56.32
2018-01-08T10:57:23.575Z,57.07
2018-01-08T10:58:23.504Z,57.26
2018-01-08T10:59:23.461Z,57.83
2018-01-08T11:00:23.421Z,57.83
2018-01-08T11:01:23.382Z,57.26
2018-01-08T11:02:23.366Z,57.45
2018-01-08T11:03:23.288Z,57.73
2018-01-08T11:04:23.294Z,58.11
2018-01-08T11:05:23.202Z,57.73
2018-01-08T11:06:23.158Z,57.64
2018-01-08T11:07:23.114Z,56.70
2018-01-08T11:08:23.069Z,57.26
2018-01-08T11:09:23.027Z,56.88
2018-01-08T11:10:22.982Z,56.98
2018-01-08T11:11:22.959Z,56.60
2018-01-08T11:12:22.916Z,55.84
2018-01-08T11:13:22.858Z,55.84
2018-01-08T11:14:22.820Z,55.75
2018-01-08T11:15:22.811Z,55.75
2018-01-08T11:16:22.725Z,55.94
2018-01-08T11:17:22.700Z,56.22
2018-01-08T11:18:22.723Z,55.37
2018-01-08T11:19:22.598Z,55.65
2018-01-08T11:20:22.553Z,55.08
2018-01-08T11:21:22.511Z,55.08
2018-01-08T11:22:22.470Z,54.71
2018-01-08T11:23:22.424Z,54.71
2018-01-08T11:24:22.384Z,54.99
2018-01-08T11:25:22.336Z,54.61
2018-01-08T11:26:22.294Z,54.80
2018-01-08T11:27:22.254Z,54.33
2018-01-08T11:28:22.221Z,54.42
2018-01-08T11:29:22.165Z,54.80
2018-01-08T11:30:22.121Z,54.90
2018-01-08T11:31:22.077Z,54.80
2018-01-08T11:32:22.046Z,55.27
2018-01-08T11:33:21.996Z,54.90
2018-01-08T11:34:21.954Z,54.90
2018-01-08T11:35:21.908Z,54.71
2018-01-08T11:36:21.862Z,54.42
2018-01-08T11:37:21.825Z,54.71
2018-01-08T11:38:21.782Z,54.42
2018-01-08T11:39:21.732Z,54.42
2018-01-08T11:40:21.689Z,54.23
2018-01-08T11:41:21.647Z,53.66
2018-01-08T11:42:21.607Z,53.57
2018-01-08T11:43:21.564Z,53.47
2018-01-08T11:44:21.525Z,53.57
2018-01-08T11:45:21.474Z,53.00
2018-01-08T11:46:21.442Z,53.38
2018-01-08T11:47:21.395Z,53.28
2018-01-08T11:48:21.355Z,53.09
2018-01-08T11:49:21.303Z,53.00
2018-01-08T11:50:21.256Z,52.53
2018-01-08T11:51:21.218Z,51.68
2018-01-08T11:52:21.186Z,52.06
2018-01-08T11:53:21.127Z,52.44
2018-01-08T11:54:21.081Z,52.91
2018-01-08T11:55:21.039Z,52.44
2018-01-08T11:56:20.997Z,52.06
2018-01-08T11:57:20.958Z,51.77
2018-01-08T11:58:20.908Z,51.68
2018-01-08T11:59:20.866Z,51.87
2018-01-08T12:00:20.835Z,50.73
2018-01-08T12:01:20.783Z,50.45
2018-01-08T12:02:20.742Z,49.79
2018-01-08T12:03:20.696Z,49.98
2018-01-08T12:04:20.651Z,50.47
2018-01-08T12:05:20.608Z,50.00
2018-01-08T12:06:20.564Z,49.60
2018-01-08T12:07:20.524Z,49.50
2018-01-08T12:08:20.483Z,50.00
2018-01-08T12:09:20.435Z,49.62
2018-01-08T12:10:20.395Z,49.24
2018-01-08T12:11:20.348Z,49.05
2018-01-08T12:12:20.310Z,49.52
2018-01-08T12:13:20.262Z,49.24
2018-01-08T12:14:20.220Z,49.33
2018-01-08T12:15:20.178Z,49.24
2018-01-08T12:16:20.140Z,49.71
2018-01-08T12:17:20.089Z,49.62
2018-01-08T12:18:20.048Z,48.96
2018-01-08T12:19:20.004Z,49.24
2018-01-08T12:20:19.987Z,49.15
2018-01-08T12:21:19.918Z,49.15
2018-01-08T12:22:19.876Z,49.33
2018-01-08T12:23:19.836Z,49.52
2018-01-08T12:24:19.799Z,48.20
2018-01-08T12:25:19.751Z,48.01
2018-01-08T12:26:19.703Z,48.01
2018-01-08T12:27:19.659Z,48.68
2018-01-08T12:28:19.618Z,48.86
2018-01-08T12:29:19.573Z,48.68
2018-01-08T12:30:19.530Z,48.86
2018-01-08T12:31:19.486Z,48.86
2018-01-08T12:32:19.444Z,48.39
2018-01-08T12:33:19.407Z,48.58
2018-01-08T12:34:19.361Z,48.68
2018-01-08T12:35:19.312Z,48.49
2018-01-08T12:36:19.272Z,48.96
2018-01-08T12:37:19.253Z,49.15
2018-01-08T12:38:19.220Z,48.58
2018-01-08T12:39:19.142Z,48.49
2018-01-08T12:40:19.106Z,48.96
2018-01-08T12:41:19.055Z,48.86
2018-01-08T12:42:19.013Z,48.68
2018-01-08T12:43:18.972Z,48.68
2018-01-08T12:44:18.928Z,48.58
2018-01-08T12:45:18.880Z,48.20
2018-01-08T12:46:18.840Z,48.20
2018-01-08T12:47:18.803Z,48.10
2018-01-08T12:48:18.754Z,48.68
2018-01-08T12:49:18.709Z,48.29
2018-01-08T12:50:18.668Z,48.20
2018-01-08T12:51:18.637Z,47.53
2018-01-08T12:52:18.583Z,48.01